createdAt,value
2019-03-12T00:00:28.132Z,72.40
2019-03-12T00:03:01.236Z,72.15
2019-03-12T00:05:31.596Z,71.55
2019-03-12T00:08:01.994Z,71.96
2019-03-12T00:10:32.480Z,72.60
2019-03-12T00:13:02.860Z,72.06
2019-03-12T00:15:33.196Z,72.85
2019-03-12T00:18:03.529Z,72.86
2019-03-12T00:20:33.987Z,73.04
2019-03-12T00:23:04.322Z,72.81
2019-03-12T00:25:34.683Z,72.03
2019-03-12T00:28:05.023Z,72.41
2019-03-12T00:30:35.690Z,72.85
2019-03-12T00:33:06.034Z,73.15
2019-03-12T00:35:36.390Z,72.96
2019-03-12T00:38:07.046Z,73.20
2019-03-12T00:40:37.397Z,72.90
2019-03-12T00:43:07.762Z,72.33
2019-03-12T00:45:38.117Z,72.59
2019-03-12T00:48:08.482Z,72.70
2019-03-12T00:50:38.840Z,72.93
2019-03-12T00:53:09.208Z,72.43
2019-03-12T00:55:40.450Z,71.59
2019-03-12T00:58:10.810Z,73.25
2019-03-12T01:00:41.178Z,72.56
2019-03-12T01:03:12.424Z,72.18
2019-03-12T01:05:42.770Z,72.16
2019-03-12T01:08:13.059Z,71.95
2019-03-12T01:10:43.338Z,72.21
2019-03-12T01:13:17.672Z,71.89
2019-03-12T01:15:48.054Z,72.82
2019-03-12T01:18:18.318Z,72.26
2019-03-12T01:20:48.697Z,72.30
2019-03-12T01:23:18.975Z,72.46
2019-03-12T01:25:49.267Z,72.63
2019-03-12T01:28:19.595Z,72.58
2019-03-12T01:30:49.956Z,71.85
2019-03-12T01:33:20.246Z,71.73
2019-03-12T01:35:50.601Z,72.15
2019-03-12T01:38:20.873Z,72.71
2019-03-12T01:40:52.135Z,73.09
2019-03-12T01:43:22.468Z,73.66
2019-03-12T01:45:52.860Z,74.13
2019-03-12T01:48:23.244Z,74.03
2019-03-12T01:50:53.606Z,74.57
2019-03-12T01:53:23.884Z,74.38
2019-03-12T01:55:54.202Z,74.57
2019-03-12T01:58:24.557Z,74.25
2019-03-12T02:00:54.897Z,74.45
2019-03-12T02:03:25.336Z,75.79
2019-03-12T02:05:55.680Z,75.87
2019-03-12T02:08:25.962Z,74.41
2019-03-12T02:10:56.318Z,74.44
2019-03-12T02:13:26.677Z,74.70
2019-03-12T02:15:57.037Z,74.81
2019-03-12T02:18:27.392Z,74.78
2019-03-12T02:20:57.683Z,74.31
2019-03-12T02:23:29.166Z,74.56
2019-03-12T02:25:59.662Z,73.90
2019-03-12T02:28:30.915Z,74.00
2019-03-12T02:31:01.212Z,73.57
2019-03-12T02:33:31.661Z,73.34
2019-03-12T02:36:02.986Z,72.78
2019-03-12T02:38:33.322Z,72.75
2019-03-12T02:41:03.682Z,72.49
2019-03-12T02:43:34.054Z,72.46
2019-03-12T02:46:06.332Z,72.04
2019-03-12T02:48:36.701Z,72.64
2019-03-12T02:51:07.060Z,72.93
2019-03-12T02:53:37.406Z,72.31
2019-03-12T02:56:07.698Z,72.20
2019-03-12T02:58:37.995Z,72.99
2019-03-12T03:01:08.356Z,73.43
2019-03-12T03:03:38.644Z,73.62
2019-03-12T03:06:16.733Z,73.33
2019-03-12T03:08:47.095Z,73.54
2019-03-12T03:11:17.414Z,72.76
2019-03-12T03:13:47.735Z,73.21
2019-03-12T03:16:18.091Z,72.24
2019-03-12T03:18:48.360Z,72.59
2019-03-12T03:21:18.643Z,72.30
2019-03-12T03:23:49.989Z,71.66
2019-03-12T03:26:20.285Z,70.62
2019-03-12T03:28:50.658Z,71.69
2019-03-12T03:31:21.015Z,70.96
2019-03-12T03:33:51.317Z,71.18
2019-03-12T03:36:21.665Z,71.07
2019-03-12T03:38:52.037Z,70.59
2019-03-12T03:41:22.319Z,70.62
2019-03-12T03:43:52.609Z,70.05
2019-03-12T03:46:22.960Z,69.97
2019-03-12T03:48:53.237Z,69.31
2019-03-12T03:51:23.563Z,69.28
2019-03-12T03:53:53.929Z,69.82
2019-03-12T03:56:24.227Z,69.90
2019-03-12T03:58:54.591Z,70.41
2019-03-12T04:01:24.945Z,69.97
2019-03-12T04:03:55.295Z,70.16
2019-03-12T04:06:25.574Z,70.74
2019-03-12T04:08:55.928Z,70.88
2019-03-12T04:11:26.235Z,71.38
2019-03-12T04:13:56.569Z,71.63
2019-03-12T04:16:26.859Z,71.60
2019-03-12T04:18:57.684Z,71.71
2019-03-12T04:21:28.032Z,71.75
2019-03-12T04:23:58.324Z,71.87
2019-03-12T04:26:28.687Z,71.17
2019-03-12T04:28:58.957Z,71.44
2019-03-12T04:31:29.381Z,72.08
2019-03-12T04:34:02.991Z,72.07
2019-03-12T04:36:33.412Z,72.68
2019-03-12T04:39:05.373Z,72.38
2019-03-12T04:41:37.324Z,73.39
2019-03-12T04:44:07.733Z,72.99
2019-03-12T04:46:38.106Z,72.81
2019-03-12T04:49:08.445Z,72.88
2019-03-12T04:51:38.803Z,72.48
2019-03-12T04:54:09.166Z,73.09
2019-03-12T04:56:39.527Z,72.40
2019-03-12T04:59:09.889Z,73.08
2019-03-12T05:01:40.246Z,72.82
2019-03-12T05:04:10.633Z,72.71
2019-03-12T05:06:40.923Z,72.36
2019-03-12T05:09:11.200Z,71.76
2019-03-12T05:11:41.581Z,71.92
2019-03-12T05:14:20.290Z,70.67
2019-03-12T05:16:51.694Z,71.03
2019-03-12T05:19:22.902Z,71.60
2019-03-12T05:21:53.262Z,71.19
2019-03-12T05:24:23.640Z,71.73
2019-03-12T05:26:55.001Z,72.14
2019-03-12T05:29:25.286Z,71.68
2019-03-12T05:31:55.667Z,71.76
2019-03-12T05:34:26.035Z,71.90
2019-03-12T05:36:57.344Z,72.19
2019-03-12T05:39:27.757Z,72.17
2019-03-12T05:41:58.172Z,72.69
2019-03-12T05:44:28.459Z,72.37
2019-03-12T05:46:58.757Z,72.18
2019-03-12T05:49:29.190Z,72.55
2019-03-12T05:51:59.657Z,72.59
2019-03-12T05:54:29.940Z,72.81
2019-03-12T05:57:00.293Z,73.05
2019-03-12T05:59:30.650Z,72.99
2019-03-12T06:02:02.057Z,73.61
2019-03-12T06:04:32.436Z,73.26
2019-03-12T06:07:03.813Z,73.55
2019-03-12T06:09:34.094Z,73.22
2019-03-12T06:12:04.425Z,74.28
2019-03-12T06:14:35.032Z,74.49
2019-03-12T06:17:05.608Z,75.10
2019-03-12T06:19:35.971Z,74.66
2019-03-12T06:22:06.321Z,74.61
2019-03-12T06:24:36.706Z,74.60
2019-03-12T06:27:07.124Z,73.53
2019-03-12T06:29:37.485Z,73.40
2019-03-12T06:32:12.189Z,73.40
2019-03-12T06:34:44.254Z,73.60
2019-03-12T06:37:19.163Z,73.38
2019-03-12T06:39:54.166Z,73.29
2019-03-12T06:42:26.138Z,72.80
2019-03-12T06:44:58.140Z,72.54
2019-03-12T06:47:39.323Z,72.17
2019-03-12T06:50:14.363Z,71.88
2019-03-12T06:52:49.544Z,72.70
2019-03-12T06:55:27.700Z,72.62
2019-03-12T06:58:20.432Z,72.95
2019-03-12T07:00:58.255Z,72.17
2019-03-12T07:03:36.028Z,71.75
2019-03-12T07:06:16.790Z,71.06
2019-03-12T07:08:48.830Z,70.58
2019-03-12T07:11:26.563Z,70.96
2019-03-12T07:14:01.269Z,71.40
2019-03-12T07:16:33.287Z,71.47
2019-03-12T07:19:11.744Z,71.02
2019-03-12T07:21:46.517Z,70.21
2019-03-12T07:24:24.627Z,70.90
2019-03-12T07:26:56.623Z,70.94
2019-03-12T07:29:34.573Z,71.08
2019-03-12T07:32:06.551Z,71.19
2019-03-12T07:34:38.481Z,71.12
2019-03-12T07:37:16.222Z,71.08
2019-03-12T07:39:52.238Z,70.67
2019-03-12T07:42:33.449Z,69.94
2019-03-12T07:45:08.516Z,69.08
2019-03-12T07:47:43.322Z,69.01
2019-03-12T07:50:24.322Z,69.73
2019-03-12T07:53:12.969Z,69.73
2019-03-12T07:55:50.908Z,68.79
2019-03-12T07:58:35.647Z,67.91
2019-03-12T08:01:08.817Z,68.24
2019-03-12T08:03:43.722Z,68.01
2019-03-12T08:06:15.724Z,67.49
2019-03-12T08:09:03.229Z,67.15
2019-03-12T08:11:48.890Z,68.31
2019-03-12T08:14:35.794Z,68.60
2019-03-12T08:17:07.772Z,67.88
2019-03-12T08:19:39.773Z,68.30
2019-03-12T08:22:14.733Z,68.56
2019-03-12T08:27:38.481Z,68.73
2019-03-12T08:30:15.227Z,69.62
2019-03-12T08:32:50.073Z,69.97
2019-03-12T08:35:28.425Z,70.18
2019-03-12T08:38:00.560Z,68.79
2019-03-12T08:40:35.337Z,67.86
2019-03-12T08:43:07.338Z,67.93
2019-03-12T08:45:45.473Z,66.94
2019-03-12T08:48:19.866Z,66.14
2019-03-12T08:51:07.091Z,66.50
2019-03-12T08:53:42.143Z,66.17
2019-03-12T08:56:19.929Z,64.84
2019-03-12T08:58:57.984Z,64.27
2019-03-12T09:01:38.968Z,64.33
2019-03-12T09:04:13.662Z,63.35
2019-03-12T09:06:45.667Z,63.51
2019-03-12T09:09:26.656Z,62.92
2019-03-12T09:11:58.689Z,62.94
2019-03-12T09:14:30.623Z,63.91
2019-03-12T09:17:02.617Z,64.02
2019-03-12T09:19:40.799Z,64.37
2019-03-12T09:22:12.862Z,63.51
2019-03-12T09:25:03.881Z,62.94
2019-03-12T09:27:35.879Z,63.23
2019-03-12T09:30:11.171Z,63.28
2019-03-12T09:32:55.007Z,63.25
2019-03-12T09:35:44.337Z,64.04
2019-03-12T09:38:32.627Z,63.88
2019-03-12T09:41:06.266Z,62.30
2019-03-12T09:43:48.351Z,62.77
2019-03-12T09:46:32.579Z,62.30
2019-03-12T09:49:10.708Z,60.59
2019-03-12T09:51:52.020Z,60.86
2019-03-12T09:54:24.064Z,60.95
2019-03-12T09:57:04.847Z,60.58
2019-03-12T09:59:49.096Z,59.90
2019-03-12T10:05:14.847Z,60.34
2019-03-12T10:07:56.116Z,60.48
2019-03-12T10:10:30.830Z,61.03
2019-03-12T10:13:13.433Z,60.93
2019-03-12T10:16:01.704Z,61.20
2019-03-12T10:18:34.813Z,60.53
2019-03-12T10:21:12.930Z,59.97
2019-03-12T10:23:45.009Z,59.69
2019-03-12T10:26:27.500Z,59.66
2019-03-12T10:29:12.266Z,59.63
2019-03-12T10:31:47.239Z,60.20
2019-03-12T10:34:29.548Z,59.49
2019-03-12T10:37:16.459Z,59.23
2019-03-12T10:40:07.822Z,59.31
2019-03-12T10:42:54.045Z,59.92
2019-03-12T10:45:44.183Z,60.31
2019-03-12T10:48:15.476Z,60.54
2019-03-12T10:50:45.846Z,60.38
2019-03-12T10:53:16.186Z,58.91
2019-03-12T10:55:46.573Z,58.45
2019-03-12T10:58:16.924Z,59.29
2019-03-12T11:00:47.212Z,58.08
2019-03-12T11:03:17.681Z,57.80
2019-03-12T11:05:48.118Z,57.49
2019-03-12T11:08:18.498Z,57.01
2019-03-12T11:10:48.853Z,56.85
2019-03-12T11:13:19.227Z,54.99
2019-03-12T11:15:49.767Z,53.81
2019-03-12T11:18:20.122Z,54.03
2019-03-12T11:20:50.523Z,54.28
2019-03-12T11:23:20.812Z,56.05
2019-03-12T11:25:52.244Z,56.46
2019-03-12T11:28:22.587Z,56.22
2019-03-12T11:30:52.947Z,56.93
2019-03-12T11:33:23.219Z,55.79
2019-03-12T11:35:53.758Z,56.85
2019-03-12T11:38:24.478Z,55.44
2019-03-12T11:40:55.465Z,56.73
2019-03-12T11:43:25.856Z,57.31
2019-03-12T11:45:56.207Z,56.54
2019-03-12T11:48:26.488Z,55.71
2019-03-12T11:50:56.845Z,55.76
2019-03-12T11:53:27.205Z,55.78
2019-03-12T11:55:57.578Z,55.21
2019-03-12T11:58:28.129Z,56.51
2019-03-12T12:01:03.090Z,55.03
2019-03-12T12:03:33.606Z,56.26
2019-03-12T12:06:04.301Z,54.86
2019-03-12T12:08:34.750Z,56.23
2019-03-12T12:11:12.559Z,55.54
2019-03-12T12:13:42.999Z,55.23
2019-03-12T12:16:13.289Z,55.25
2019-03-12T12:18:43.749Z,55.71
2019-03-12T12:21:15.541Z,56.70
2019-03-12T12:23:45.986Z,56.93
2019-03-12T12:26:16.360Z,56.61
2019-03-12T12:28:46.850Z,57.19
2019-03-12T12:31:17.269Z,56.95
2019-03-12T12:33:47.726Z,57.24
2019-03-12T12:36:18.013Z,56.70
2019-03-12T12:38:48.395Z,56.10
2019-03-12T12:41:19.177Z,55.73
2019-03-12T12:43:49.523Z,55.74
2019-03-12T12:46:19.809Z,56.52
2019-03-12T12:48:53.176Z,56.23
2019-03-12T12:51:22.190Z,56.01
2019-03-12T12:53:52.632Z,56.60
2019-03-12T12:56:22.924Z,54.76
2019-03-12T12:58:53.274Z,54.53
2019-03-12T13:01:23.559Z,54.34
2019-03-12T13:03:53.918Z,53.72
2019-03-12T13:06:24.363Z,53.12
2019-03-12T13:08:54.682Z,53.78
2019-03-12T13:11:25.054Z,52.73
2019-03-12T13:13:55.344Z,51.74
2019-03-12T13:16:25.963Z,51.77
2019-03-12T13:18:57.287Z,52.88
2019-03-12T13:21:27.571Z,51.81
2019-03-12T13:23:57.876Z,50.93
2019-03-12T13:26:28.247Z,51.43
2019-03-12T13:28:58.614Z,50.51
2019-03-12T13:31:29.105Z,51.59
2019-03-12T13:33:59.554Z,52.22
2019-03-12T13:36:29.919Z,50.76
2019-03-12T13:39:00.221Z,51.67
2019-03-12T13:41:32.216Z,50.68
2019-03-12T13:44:02.714Z,51.02
2019-03-12T13:46:33.046Z,51.29
2019-03-12T13:49:03.607Z,51.55
2019-03-12T13:51:33.954Z,52.11
2019-03-12T13:54:04.284Z,51.88
2019-03-12T13:56:34.639Z,51.46
2019-03-12T13:59:05.003Z,52.47
2019-03-12T14:01:35.573Z,52.43
2019-03-12T14:04:10.698Z,53.66
2019-03-12T14:06:38.016Z,53.30
2019-03-12T14:09:08.471Z,52.13
2019-03-12T14:11:41.833Z,52.89
2019-03-12T14:14:12.183Z,53.47
2019-03-12T14:16:42.543Z,52.77
2019-03-12T14:19:12.898Z,52.87
2019-03-12T14:21:43.233Z,52.60
2019-03-12T14:24:13.587Z,52.79
2019-03-12T14:26:43.962Z,52.55
2019-03-12T14:29:14.298Z,53.79
2019-03-12T14:31:44.626Z,53.75
2019-03-12T14:34:15.771Z,52.83
2019-03-12T14:36:46.208Z,52.35
2019-03-12T14:39:16.817Z,52.44
2019-03-12T14:41:47.192Z,53.08
2019-03-12T14:44:17.543Z,53.74
2019-03-12T14:46:47.955Z,52.55
2019-03-12T14:49:18.387Z,53.38
2019-03-12T14:51:58.315Z,53.56
2019-03-12T14:54:31.115Z,54.01
2019-03-12T14:57:03.947Z,54.64
2019-03-12T14:59:34.506Z,55.82
2019-03-12T15:02:05.848Z,55.21
2019-03-12T15:04:36.235Z,54.81
2019-03-12T15:07:06.602Z,55.16
2019-03-12T15:09:36.973Z,55.18
2019-03-12T15:12:07.341Z,56.04
2019-03-12T15:14:37.944Z,55.42
2019-03-12T15:17:08.300Z,56.36
2019-03-12T15:19:38.675Z,56.10
2019-03-12T15:22:09.125Z,56.37
2019-03-12T15:24:40.460Z,56.32
2019-03-12T15:27:10.825Z,56.53
2019-03-12T15:29:42.649Z,56.64
2019-03-12T15:32:13.268Z,57.40
2019-03-12T15:34:43.631Z,57.94
2019-03-12T15:37:13.972Z,57.89
2019-03-12T15:39:44.346Z,57.39
2019-03-12T15:42:15.355Z,57.05
2019-03-12T15:44:45.999Z,58.10
2019-03-12T15:47:16.364Z,58.26
2019-03-12T15:49:46.656Z,58.15
2019-03-12T15:52:17.036Z,58.31
2019-03-12T15:54:47.377Z,58.21
2019-03-12T15:57:17.732Z,58.61
2019-03-12T15:59:48.404Z,58.65
2019-03-12T16:02:18.711Z,58.46
2019-03-12T16:04:49.104Z,58.41
2019-03-12T16:07:19.475Z,58.16
2019-03-12T16:09:49.843Z,58.28
2019-03-12T16:12:20.177Z,57.63
2019-03-12T16:14:50.560Z,57.67
2019-03-12T16:17:20.842Z,57.14
2019-03-12T16:19:51.262Z,57.47
2019-03-12T16:22:21.557Z,57.46
2019-03-12T16:24:51.922Z,57.23
2019-03-12T16:27:22.544Z,57.35
2019-03-12T16:29:53.804Z,56.97
2019-03-12T16:32:26.544Z,57.17
2019-03-12T16:34:56.905Z,56.87
2019-03-12T16:37:27.339Z,57.23
2019-03-12T16:39:57.715Z,57.42
2019-03-12T16:42:34.925Z,57.75
2019-03-12T16:45:00.169Z,58.21
2019-03-12T16:47:32.134Z,58.76
2019-03-12T16:50:02.541Z,59.08
2019-03-12T16:52:32.903Z,58.89
2019-03-12T16:55:03.403Z,58.71
2019-03-12T16:57:33.794Z,58.61
2019-03-12T17:00:11.403Z,58.73
2019-03-12T17:02:42.927Z,58.59
2019-03-12T17:05:13.524Z,58.60
2019-03-12T17:07:44.796Z,58.90
2019-03-12T17:10:21.733Z,58.80
2019-03-12T17:12:52.095Z,58.47
2019-03-12T17:15:27.439Z,58.24
2019-03-12T17:17:57.824Z,58.54
2019-03-12T17:20:28.151Z,58.19
2019-03-12T17:22:58.514Z,58.74
2019-03-12T17:25:28.831Z,58.61
2019-03-12T17:27:59.219Z,58.89
2019-03-12T17:30:29.619Z,58.73
2019-03-12T17:33:00.015Z,58.99
2019-03-12T17:35:41.552Z,58.66
2019-03-12T17:38:12.895Z,59.40
2019-03-12T17:40:43.319Z,58.79
2019-03-12T17:43:13.701Z,59.38
2019-03-12T17:45:44.089Z,58.62
2019-03-12T17:48:14.435Z,58.84
2019-03-12T17:50:46.409Z,58.79
2019-03-12T17:53:16.714Z,57.90
2019-03-12T17:55:47.087Z,58.34
2019-03-12T17:58:17.672Z,58.34
2019-03-12T18:00:48.055Z,58.46
2019-03-12T18:03:20.012Z,58.98
2019-03-12T18:05:50.398Z,59.77
2019-03-12T18:08:20.847Z,59.36
2019-03-12T18:10:51.262Z,58.88
2019-03-12T18:13:21.672Z,59.66
2019-03-12T18:15:52.033Z,59.96
2019-03-12T18:18:22.395Z,59.83
2019-03-12T18:20:52.879Z,59.90
2019-03-12T18:23:24.695Z,59.76
2019-03-12T18:25:55.356Z,60.06
2019-03-12T18:28:26.047Z,59.89
2019-03-12T18:30:56.505Z,59.84
2019-03-12T18:33:27.010Z,59.93
2019-03-12T18:35:59.249Z,60.44
2019-03-12T18:38:30.532Z,59.91
2019-03-12T18:41:01.169Z,59.60
2019-03-12T18:43:32.940Z,59.22
2019-03-12T18:46:03.698Z,59.89
2019-03-12T18:48:34.288Z,60.03
2019-03-12T18:51:04.785Z,59.30
2019-03-12T18:53:35.249Z,58.49
2019-03-12T18:56:06.168Z,59.02
2019-03-12T18:58:42.004Z,58.18
2019-03-12T19:01:15.128Z,58.64
2019-03-12T19:03:45.800Z,59.08
2019-03-12T19:06:16.520Z,59.56
2019-03-12T19:08:48.609Z,59.02
2019-03-12T19:11:19.228Z,58.87
2019-03-12T19:13:49.847Z,58.55
2019-03-12T19:16:20.824Z,58.67
2019-03-12T19:18:52.510Z,58.86
2019-03-12T19:21:23.691Z,58.17
2019-03-12T19:23:55.776Z,57.57
2019-03-12T19:26:26.563Z,57.19
2019-03-12T19:28:56.958Z,57.16
2019-03-12T19:31:30.559Z,57.80
2019-03-12T19:34:03.439Z,57.82
2019-03-12T19:36:34.079Z,57.80
2019-03-12T19:39:07.025Z,56.46
2019-03-12T19:41:38.318Z,56.08
2019-03-12T19:44:11.206Z,56.19
2019-03-12T19:46:43.150Z,56.18
2019-03-12T19:49:14.254Z,56.70
2019-03-12T19:51:50.312Z,55.62
2019-03-12T19:54:25.079Z,56.23
2019-03-12T19:56:55.652Z,55.01
2019-03-12T19:59:26.079Z,55.73
2019-03-12T20:01:56.503Z,56.58
2019-03-12T20:04:27.889Z,56.37
2019-03-12T20:06:58.449Z,54.71
2019-03-12T20:09:35.078Z,55.11
2019-03-12T20:12:20.564Z,55.86
2019-03-12T20:15:16.570Z,56.33
2019-03-12T20:18:19.058Z,55.57
2019-03-12T20:21:18.223Z,56.32
2019-03-12T20:24:13.249Z,56.98
2019-03-12T20:27:03.557Z,55.67
2019-03-12T20:30:03.061Z,56.30
2019-03-12T20:33:02.986Z,56.17
2019-03-12T20:35:56.953Z,57.14
2019-03-12T20:38:48.738Z,57.29
2019-03-12T20:41:28.530Z,56.02
2019-03-12T20:44:14.468Z,57.32
2019-03-12T20:47:03.181Z,56.42
2019-03-12T20:50:10.356Z,56.29
2019-03-12T20:52:55.604Z,56.08
2019-03-12T20:55:42.032Z,56.55
2019-03-12T20:58:46.659Z,56.46
2019-03-12T21:01:53.315Z,56.84
2019-03-12T21:05:00.439Z,57.72
2019-03-12T21:08:07.079Z,57.16
2019-03-12T21:11:00.133Z,56.92
2019-03-12T21:13:48.254Z,57.03
2019-03-12T21:16:55.399Z,57.26
2019-03-12T21:19:29.025Z,57.48
2019-03-12T21:22:08.500Z,56.73
2019-03-12T21:25:18.764Z,57.82
2019-03-12T21:28:04.482Z,56.66
2019-03-12T21:30:35.165Z,56.53
2019-03-12T21:33:15.274Z,57.04
2019-03-12T21:35:41.204Z,56.78
2019-03-12T21:38:13.202Z,57.47
2019-03-12T21:40:45.087Z,56.82
2019-03-12T21:43:16.524Z,56.90
2019-03-12T21:45:47.165Z,56.86
2019-03-12T21:48:17.463Z,56.30
2019-03-12T21:50:47.914Z,56.54
2019-03-12T21:53:18.286Z,56.37
2019-03-12T21:55:48.778Z,56.34
2019-03-12T21:58:19.171Z,55.85
2019-03-12T22:00:49.550Z,57.19
2019-03-12T22:03:19.948Z,56.21
2019-03-12T22:05:50.346Z,56.30
2019-03-12T22:08:20.615Z,57.89
2019-03-12T22:10:50.994Z,56.10
2019-03-12T22:13:21.350Z,56.74
2019-03-12T22:15:52.773Z,56.00
2019-03-12T22:18:23.111Z,55.97
2019-03-12T22:20:53.467Z,56.10
2019-03-12T22:23:25.427Z,56.51
2019-03-12T22:25:56.142Z,55.02
2019-03-12T22:28:26.618Z,56.78
2019-03-12T22:30:56.982Z,56.76
2019-03-12T22:33:27.338Z,55.31
2019-03-12T22:35:57.703Z,55.46
2019-03-12T22:38:28.006Z,55.85
2019-03-12T22:40:58.444Z,55.83
2019-03-12T22:43:28.730Z,56.51
2019-03-12T22:45:59.054Z,55.80
2019-03-12T22:48:29.536Z,55.44
2019-03-12T22:51:00.792Z,55.87
2019-03-12T22:53:32.283Z,56.73
2019-03-12T22:56:02.625Z,56.42
2019-03-12T22:58:32.931Z,55.27
2019-03-12T23:01:21.199Z,54.79
2019-03-12T23:04:09.525Z,54.78
2019-03-12T23:06:57.925Z,55.94
2019-03-12T23:09:42.788Z,54.90
2019-03-12T23:12:16.964Z,55.17
2019-03-12T23:14:48.459Z,55.17
2019-03-12T23:17:20.347Z,55.76
2019-03-12T23:19:50.719Z,56.04
2019-03-12T23:22:21.099Z,55.42
2019-03-12T23:24:52.559Z,54.50
2019-03-12T23:27:22.872Z,54.53
2019-03-12T23:29:53.199Z,54.54
2019-03-12T23:32:23.517Z,54.81
2019-03-12T23:34:53.910Z,55.58
2019-03-12T23:37:25.361Z,55.20
2019-03-12T23:39:55.681Z,54.34
2019-03-12T23:42:26.349Z,54.99
2019-03-12T23:44:56.724Z,55.31
2019-03-12T23:47:27.187Z,53.56
2019-03-12T23:49:57.575Z,54.42
2019-03-12T23:52:27.957Z,55.63
2019-03-12T23:54:58.348Z,55.30
2019-03-12T23:57:28.730Z,54.87
2019-03-12T23:59:59.126Z,54.11
